Saint-Roch-Des-Aulnaies, Canada
Current Conditions -  °F | °C
As of 9:00 AM on Tuesday 27 Jan 2015 (Local Time) from CYQB Reporting Station
Blowing Snow Blowing Snow  
Wind Chill: -27°   Ceiling: Unl
Heat Index: -15°   Visibility: 30mi
Dew Point: -21°   Wind: 24mph
Humidity: 61%   Direction: 50°NE
Pressure: 30.16"   Gusts: 45mph
Location:  47.32°N, 70.18°W
Report Text: CYQB 271400Z 05021G39KT 30SM R06/4500VP6000FT/D BLSN FEW012 FEW020 M15/M21 A3016 RMK SF1SC1 SF TR SF AND SC MNLY OVR STLAWR SLP220
Loading
Personal Weather Stations






























Interactive Weather Map New forecast layout! Learn more

10-Day Weather Forecast

Advertisements
Track Severe Weather on mobile